sensor_id;sensor_type;location;lat;lon;timestamp;P1;durP1;ratioP1;P2;durP2;ratioP2
20179;SDS011;10249;48.900;9.090;2023-07-13T00:00:04;13.70;;;13.10;;
20179;SDS011;10249;48.900;9.090;2023-07-13T00:02:34;14.30;;;13.50;;
20179;SDS011;10249;48.900;9.090;2023-07-13T00:05:01;13.70;;;13.10;;
20179;SDS011;10249;48.900;9.090;2023-07-13T00:07:28;13.83;;;13.23;;
20179;SDS011;10249;48.900;9.090;2023-07-13T00:09:56;13.23;;;12.73;;
20179;SDS011;10249;48.900;9.090;2023-07-13T00:12:25;13.57;;;12.97;;
20179;SDS011;10249;48.900;9.090;2023-07-13T00:14:53;13.27;;;12.77;;
20179;SDS011;10249;48.900;9.090;2023-07-13T00:17:23;13.67;;;13.07;;
20179;SDS011;10249;48.900;9.090;2023-07-13T00:19:50;13.30;;;12.80;;
20179;SDS011;10249;48.900;9.090;2023-07-13T00:22:17;13.27;;;12.77;;
20179;SDS011;10249;48.900;9.090;2023-07-13T00:24:44;13.17;;;12.67;;
20179;SDS011;10249;48.900;9.090;2023-07-13T00:27:11;13.10;;;12.60;;
20179;SDS011;10249;48.900;9.090;2023-07-13T00:29:38;13.27;;;12.77;;
20179;SDS011;10249;48.900;9.090;2023-07-13T00:32:06;13.50;;;12.90;;
20179;SDS011;10249;48.900;9.090;2023-07-13T00:34:35;13.40;;;12.90;;
20179;SDS011;10249;48.900;9.090;2023-07-13T00:37:03;13.63;;;13.03;;
20179;SDS011;10249;48.900;9.090;2023-07-13T00:39:32;13.50;;;12.90;;
20179;SDS011;10249;48.900;9.090;2023-07-13T00:41:59;13.20;;;12.70;;
20179;SDS011;10249;48.900;9.090;2023-07-13T00:44:27;13.00;;;12.50;;
20179;SDS011;10249;48.900;9.090;2023-07-13T00:46:54;13.20;;;12.70;;
20179;SDS011;10249;48.900;9.090;2023-07-13T00:49:23;13.30;;;12.80;;
20179;SDS011;10249;48.900;9.090;2023-07-13T00:51:54;13.30;;;12.80;;
20179;SDS011;10249;48.900;9.090;2023-07-13T00:54:22;13.30;;;12.80;;
20179;SDS011;10249;48.900;9.090;2023-07-13T00:56:50;13.07;;;12.57;;
20179;SDS011;10249;48.900;9.090;2023-07-13T00:59:18;13.60;;;13.10;;
20179;SDS011;10249;48.900;9.090;2023-07-13T01:01:46;13.27;;;12.77;;
20179;SDS011;10249;48.900;9.090;2023-07-13T01:04:14;13.47;;;12.97;;
20179;SDS011;10249;48.900;9.090;2023-07-13T01:06:41;13.23;;;12.73;;
20179;SDS011;10249;48.900;9.090;2023-07-13T01:09:10;13.20;;;12.70;;
20179;SDS011;10249;48.900;9.090;2023-07-13T01:11:38;13.30;;;12.80;;
20179;SDS011;10249;48.900;9.090;2023-07-13T01:14:06;13.13;;;12.63;;
20179;SDS011;10249;48.900;9.090;2023-07-13T01:16:34;13.40;;;12.90;;
20179;SDS011;10249;48.900;9.090;2023-07-13T01:19:01;13.30;;;12.80;;
20179;SDS011;10249;48.900;9.090;2023-07-13T01:21:32;13.57;;;13.07;;
20179;SDS011;10249;48.900;9.090;2023-07-13T01:23:59;13.57;;;13.03;;
20179;SDS011;10249;48.900;9.090;2023-07-13T01:26:27;13.37;;;12.87;;
20179;SDS011;10249;48.900;9.090;2023-07-13T01:28:54;13.40;;;12.90;;
20179;SDS011;10249;48.900;9.090;2023-07-13T01:31:22;13.90;;;13.30;;
20179;SDS011;10249;48.900;9.090;2023-07-13T01:33:49;13.40;;;12.90;;
20179;SDS011;10249;48.900;9.090;2023-07-13T01:36:16;13.30;;;12.80;;
20179;SDS011;10249;48.900;9.090;2023-07-13T01:38:47;14.43;;;13.57;;
20179;SDS011;10249;48.900;9.090;2023-07-13T01:41:14;13.10;;;12.60;;
20179;SDS011;10249;48.900;9.090;2023-07-13T01:43:41;13.10;;;12.60;;
20179;SDS011;10249;48.900;9.090;2023-07-13T01:46:09;12.87;;;12.37;;
20179;SDS011;10249;48.900;9.090;2023-07-13T01:48:36;13.27;;;12.77;;
20179;SDS011;10249;48.900;9.090;2023-07-13T01:51:03;12.80;;;12.30;;
20179;SDS011;10249;48.900;9.090;2023-07-13T01:53:30;13.00;;;12.50;;
20179;SDS011;10249;48.900;9.090;2023-07-13T01:55:58;12.73;;;12.23;;
20179;SDS011;10249;48.900;9.090;2023-07-13T01:58:25;12.60;;;12.10;;
20179;SDS011;10249;48.900;9.090;2023-07-13T02:00:52;12.50;;;12.00;;
20179;SDS011;10249;48.900;9.090;2023-07-13T02:03:19;12.50;;;12.00;;
20179;SDS011;10249;48.900;9.090;2023-07-13T02:05:46;12.57;;;12.07;;
20179;SDS011;10249;48.900;9.090;2023-07-13T02:08:13;12.60;;;12.10;;
20179;SDS011;10249;48.900;9.090;2023-07-13T02:10:40;12.60;;;12.10;;
20179;SDS011;10249;48.900;9.090;2023-07-13T02:13:09;12.47;;;11.97;;
20179;SDS011;10249;48.900;9.090;2023-07-13T02:15:38;12.10;;;11.60;;
20179;SDS011;10249;48.900;9.090;2023-07-13T02:18:05;12.20;;;11.70;;
20179;SDS011;10249;48.900;9.090;2023-07-13T02:20:32;12.30;;;11.80;;
20179;SDS011;10249;48.900;9.090;2023-07-13T02:22:59;12.40;;;11.90;;
20179;SDS011;10249;48.900;9.090;2023-07-13T02:25:26;12.37;;;11.87;;
20179;SDS011;10249;48.900;9.090;2023-07-13T02:27:53;12.10;;;11.60;;
20179;SDS011;10249;48.900;9.090;2023-07-13T02:30:22;11.90;;;11.50;;
20179;SDS011;10249;48.900;9.090;2023-07-13T02:32:49;11.80;;;11.40;;
20179;SDS011;10249;48.900;9.090;2023-07-13T02:35:16;11.83;;;11.43;;
20179;SDS011;10249;48.900;9.090;2023-07-13T02:37:43;11.30;;;10.90;;
20179;SDS011;10249;48.900;9.090;2023-07-13T02:40:11;11.70;;;11.30;;
20179;SDS011;10249;48.900;9.090;2023-07-13T02:42:38;11.60;;;11.20;;
20179;SDS011;10249;48.900;9.090;2023-07-13T02:45:05;11.67;;;11.27;;
20179;SDS011;10249;48.900;9.090;2023-07-13T02:47:34;11.57;;;11.17;;
20179;SDS011;10249;48.900;9.090;2023-07-13T02:50:02;11.30;;;10.90;;
20179;SDS011;10249;48.900;9.090;2023-07-13T02:52:29;11.37;;;10.97;;
20179;SDS011;10249;48.900;9.090;2023-07-13T02:54:56;11.50;;;11.10;;
20179;SDS011;10249;48.900;9.090;2023-07-13T02:57:23;11.20;;;10.80;;
20179;SDS011;10249;48.900;9.090;2023-07-13T02:59:50;11.33;;;10.93;;
20179;SDS011;10249;48.900;9.090;2023-07-13T03:02:17;11.00;;;10.60;;
20179;SDS011;10249;48.900;9.090;2023-07-13T03:04:45;11.20;;;10.80;;
20179;SDS011;10249;48.900;9.090;2023-07-13T03:07:12;10.83;;;10.43;;
20179;SDS011;10249;48.900;9.090;2023-07-13T03:09:40;10.83;;;10.43;;
20179;SDS011;10249;48.900;9.090;2023-07-13T03:12:08;11.00;;;10.60;;
20179;SDS011;10249;48.900;9.090;2023-07-13T03:14:35;11.17;;;10.77;;
20179;SDS011;10249;48.900;9.090;2023-07-13T03:17:02;11.10;;;10.70;;
20179;SDS011;10249;48.900;9.090;2023-07-13T03:19:29;11.30;;;10.90;;
20179;SDS011;10249;48.900;9.090;2023-07-13T03:21:57;11.60;;;11.20;;
20179;SDS011;10249;48.900;9.090;2023-07-13T03:24:24;11.60;;;11.20;;
20179;SDS011;10249;48.900;9.090;2023-07-13T03:26:51;11.43;;;11.03;;
20179;SDS011;10249;48.900;9.090;2023-07-13T03:29:18;11.30;;;10.90;;
20179;SDS011;10249;48.900;9.090;2023-07-13T03:31:46;11.93;;;11.43;;
20179;SDS011;10249;48.900;9.090;2023-07-13T03:34:13;11.67;;;11.27;;
20179;SDS011;10249;48.900;9.090;2023-07-13T03:36:40;11.60;;;11.20;;
20179;SDS011;10249;48.900;9.090;2023-07-13T03:39:09;11.67;;;11.27;;
20179;SDS011;10249;48.900;9.090;2023-07-13T03:41:36;11.43;;;11.03;;
20179;SDS011;10249;48.900;9.090;2023-07-13T03:44:03;11.90;;;11.40;;
20179;SDS011;10249;48.900;9.090;2023-07-13T03:46:30;11.73;;;11.30;;
20179;SDS011;10249;48.900;9.090;2023-07-13T03:48:58;11.87;;;11.37;;
20179;SDS011;10249;48.900;9.090;2023-07-13T03:51:25;12.00;;;11.50;;
20179;SDS011;10249;48.900;9.090;2023-07-13T03:53:52;11.70;;;11.30;;
20179;SDS011;10249;48.900;9.090;2023-07-13T03:56:21;12.00;;;11.50;;
20179;SDS011;10249;48.900;9.090;2023-07-13T03:58:49;12.20;;;11.70;;
20179;SDS011;10249;48.900;9.090;2023-07-13T04:01:17;11.70;;;11.27;;
20179;SDS011;10249;48.900;9.090;2023-07-13T04:03:44;12.00;;;11.50;;
20179;SDS011;10249;48.900;9.090;2023-07-13T04:06:14;12.27;;;11.77;;
20179;SDS011;10249;48.900;9.090;2023-07-13T04:08:46;12.13;;;11.63;;
20179;SDS011;10249;48.900;9.090;2023-07-13T04:11:13;12.30;;;11.80;;
20179;SDS011;10249;48.900;9.090;2023-07-13T04:13:41;12.20;;;11.70;;
20179;SDS011;10249;48.900;9.090;2023-07-13T04:16:08;12.27;;;11.77;;
20179;SDS011;10249;48.900;9.090;2023-07-13T04:18:35;12.00;;;11.50;;
20179;SDS011;10249;48.900;9.090;2023-07-13T04:21:03;11.77;;;11.27;;
20179;SDS011;10249;48.900;9.090;2023-07-13T04:23:30;12.07;;;11.57;;
20179;SDS011;10249;48.900;9.090;2023-07-13T04:25:57;11.97;;;11.47;;
20179;SDS011;10249;48.900;9.090;2023-07-13T04:28:24;11.67;;;11.27;;
20179;SDS011;10249;48.900;9.090;2023-07-13T04:30:53;12.00;;;11.50;;
20179;SDS011;10249;48.900;9.090;2023-07-13T04:33:20;11.70;;;11.30;;
20179;SDS011;10249;48.900;9.090;2023-07-13T04:35:48;11.70;;;11.30;;
20179;SDS011;10249;48.900;9.090;2023-07-13T04:38:21;11.43;;;11.03;;
20179;SDS011;10249;48.900;9.090;2023-07-13T04:40:49;11.53;;;11.13;;
20179;SDS011;10249;48.900;9.090;2023-07-13T04:43:17;12.00;;;11.50;;
20179;SDS011;10249;48.900;9.090;2023-07-13T04:45:44;11.57;;;11.17;;
20179;SDS011;10249;48.900;9.090;2023-07-13T04:48:12;12.20;;;11.70;;
20179;SDS011;10249;48.900;9.090;2023-07-13T04:50:39;11.60;;;11.20;;
20179;SDS011;10249;48.900;9.090;2023-07-13T04:53:06;11.70;;;11.30;;
20179;SDS011;10249;48.900;9.090;2023-07-13T04:55:33;11.10;;;10.70;;
20179;SDS011;10249;48.900;9.090;2023-07-13T04:58:00;10.53;;;10.13;;
20179;SDS011;10249;48.900;9.090;2023-07-13T05:00:27;11.20;;;10.80;;
20179;SDS011;10249;48.900;9.090;2023-07-13T05:02:55;11.23;;;10.83;;
20179;SDS011;10249;48.900;9.090;2023-07-13T05:05:24;12.10;;;11.60;;
20179;SDS011;10249;48.900;9.090;2023-07-13T05:07:51;11.90;;;11.40;;
20179;SDS011;10249;48.900;9.090;2023-07-13T05:10:18;12.17;;;11.67;;
20179;SDS011;10249;48.900;9.090;2023-07-13T05:12:45;12.27;;;11.77;;
20179;SDS011;10249;48.900;9.090;2023-07-13T05:15:12;12.60;;;12.10;;
20179;SDS011;10249;48.900;9.090;2023-07-13T05:17:39;12.30;;;11.80;;
20179;SDS011;10249;48.900;9.090;2023-07-13T05:20:07;12.40;;;11.90;;
20179;SDS011;10249;48.900;9.090;2023-07-13T05:22:36;12.30;;;11.80;;
20179;SDS011;10249;48.900;9.090;2023-07-13T05:25:04;12.30;;;11.80;;
20179;SDS011;10249;48.900;9.090;2023-07-13T05:27:31;12.70;;;12.20;;
20179;SDS011;10249;48.900;9.090;2023-07-13T05:29:58;12.60;;;12.10;;
20179;SDS011;10249;48.900;9.090;2023-07-13T05:32:25;13.03;;;12.53;;
20179;SDS011;10249;48.900;9.090;2023-07-13T05:34:52;12.87;;;12.37;;
20179;SDS011;10249;48.900;9.090;2023-07-13T05:37:20;12.80;;;12.30;;
20179;SDS011;10249;48.900;9.090;2023-07-13T05:39:48;12.50;;;12.00;;
20179;SDS011;10249;48.900;9.090;2023-07-13T05:42:15;12.67;;;12.17;;
20179;SDS011;10249;48.900;9.090;2023-07-13T05:44:42;12.90;;;12.40;;
20179;SDS011;10249;48.900;9.090;2023-07-13T05:47:09;12.63;;;12.13;;
20179;SDS011;10249;48.900;9.090;2023-07-13T05:49:36;12.73;;;12.23;;
20179;SDS011;10249;48.900;9.090;2023-07-13T05:52:04;12.80;;;12.30;;
20179;SDS011;10249;48.900;9.090;2023-07-13T05:54:31;12.60;;;12.10;;
20179;SDS011;10249;48.900;9.090;2023-07-13T05:56:59;12.90;;;12.40;;
20179;SDS011;10249;48.900;9.090;2023-07-13T05:59:26;13.30;;;12.80;;
20179;SDS011;10249;48.900;9.090;2023-07-13T06:01:53;13.40;;;12.80;;
20179;SDS011;10249;48.900;9.090;2023-07-13T06:04:21;13.60;;;13.00;;
20179;SDS011;10249;48.900;9.090;2023-07-13T06:06:48;13.50;;;12.90;;
20179;SDS011;10249;48.900;9.090;2023-07-13T06:09:15;13.50;;;12.90;;
20179;SDS011;10249;48.900;9.090;2023-07-13T06:11:42;13.33;;;12.73;;
20179;SDS011;10249;48.900;9.090;2023-07-13T06:14:11;13.23;;;12.63;;
20179;SDS011;10249;48.900;9.090;2023-07-13T06:16:39;12.70;;;12.20;;
20179;SDS011;10249;48.900;9.090;2023-07-13T06:19:07;13.53;;;12.93;;
20179;SDS011;10249;48.900;9.090;2023-07-13T06:21:34;14.07;;;13.47;;
20179;SDS011;10249;48.900;9.090;2023-07-13T06:24:01;13.87;;;13.27;;
20179;SDS011;10249;48.900;9.090;2023-07-13T06:26:28;13.93;;;13.33;;
20179;SDS011;10249;48.900;9.090;2023-07-13T06:28:55;14.67;;;13.97;;
20179;SDS011;10249;48.900;9.090;2023-07-13T06:31:23;13.80;;;13.20;;
20179;SDS011;10249;48.900;9.090;2023-07-13T06:33:50;14.90;;;14.20;;
20179;SDS011;10249;48.900;9.090;2023-07-13T06:36:17;14.80;;;14.10;;
20179;SDS011;10249;48.900;9.090;2023-07-13T06:38:44;15.27;;;14.57;;
20179;SDS011;10249;48.900;9.090;2023-07-13T06:41:11;15.03;;;14.33;;
20179;SDS011;10249;48.900;9.090;2023-07-13T06:43:38;14.63;;;13.93;;
20179;SDS011;10249;48.900;9.090;2023-07-13T06:46:06;15.40;;;14.70;;
20179;SDS011;10249;48.900;9.090;2023-07-13T06:48:34;15.30;;;14.60;;
20179;SDS011;10249;48.900;9.090;2023-07-13T06:51:01;15.20;;;14.50;;
20179;SDS011;10249;48.900;9.090;2023-07-13T06:53:28;15.57;;;14.87;;
20179;SDS011;10249;48.900;9.090;2023-07-13T06:55:55;15.77;;;15.07;;
20179;SDS011;10249;48.900;9.090;2023-07-13T06:58:22;15.60;;;14.90;;
20179;SDS011;10249;48.900;9.090;2023-07-13T07:00:50;15.50;;;14.80;;
20179;SDS011;10249;48.900;9.090;2023-07-13T07:03:17;15.13;;;14.43;;
20179;SDS011;10249;48.900;9.090;2023-07-13T07:05:45;15.90;;;15.20;;
20179;SDS011;10249;48.900;9.090;2023-07-13T07:08:12;15.90;;;15.20;;
20179;SDS011;10249;48.900;9.090;2023-07-13T07:10:40;15.53;;;14.83;;
20179;SDS011;10249;48.900;9.090;2023-07-13T07:13:07;15.50;;;14.80;;
20179;SDS011;10249;48.900;9.090;2023-07-13T07:15:34;15.40;;;14.70;;
20179;SDS011;10249;48.900;9.090;2023-07-13T07:18:01;16.00;;;15.20;;
20179;SDS011;10249;48.900;9.090;2023-07-13T07:20:28;16.30;;;15.50;;
20179;SDS011;10249;48.900;9.090;2023-07-13T07:22:59;15.77;;;15.03;;
20179;SDS011;10249;48.900;9.090;2023-07-13T07:25:26;15.70;;;15.00;;
20179;SDS011;10249;48.900;9.090;2023-07-13T07:27:56;15.30;;;14.60;;
20179;SDS011;10249;48.900;9.090;2023-07-13T07:30:24;15.93;;;15.13;;
20179;SDS011;10249;48.900;9.090;2023-07-13T07:32:51;15.90;;;15.20;;
20179;SDS011;10249;48.900;9.090;2023-07-13T07:35:18;15.50;;;14.80;;
20179;SDS011;10249;48.900;9.090;2023-07-13T07:37:46;16.07;;;15.27;;
20179;SDS011;10249;48.900;9.090;2023-07-13T07:40:14;15.73;;;15.00;;
20179;SDS011;10249;48.900;9.090;2023-07-13T07:42:41;16.17;;;15.38;;
20179;SDS011;10249;48.900;9.090;2023-07-13T07:45:09;15.47;;;14.77;;
20179;SDS011;10249;48.900;9.090;2023-07-13T07:47:37;15.93;;;15.20;;
20179;SDS011;10249;48.900;9.090;2023-07-13T07:50:04;15.20;;;14.50;;
20179;SDS011;10249;48.900;9.090;2023-07-13T07:52:31;15.27;;;14.57;;
20179;SDS011;10249;48.900;9.090;2023-07-13T07:54:58;15.47;;;14.77;;
20179;SDS011;10249;48.900;9.090;2023-07-13T07:57:27;15.63;;;14.90;;
20179;SDS011;10249;48.900;9.090;2023-07-13T07:59:54;15.83;;;15.03;;
20179;SDS011;10249;48.900;9.090;2023-07-13T08:02:21;15.10;;;14.40;;
20179;SDS011;10249;48.900;9.090;2023-07-13T08:04:48;15.87;;;15.07;;
20179;SDS011;10249;48.900;9.090;2023-07-13T08:07:15;15.43;;;14.73;;
20179;SDS011;10249;48.900;9.090;2023-07-13T08:09:42;15.70;;;15.00;;
20179;SDS011;10249;48.900;9.090;2023-07-13T08:12:09;15.43;;;14.63;;
20179;SDS011;10249;48.900;9.090;2023-07-13T08:14:38;15.13;;;14.43;;
20179;SDS011;10249;48.900;9.090;2023-07-13T08:17:05;15.70;;;14.90;;
20179;SDS011;10249;48.900;9.090;2023-07-13T08:19:32;15.47;;;14.67;;
20179;SDS011;10249;48.900;9.090;2023-07-13T08:21:59;15.43;;;14.63;;
20179;SDS011;10249;48.900;9.090;2023-07-13T08:24:26;16.10;;;15.30;;
20179;SDS011;10249;48.900;9.090;2023-07-13T08:26:53;15.83;;;15.03;;
20179;SDS011;10249;48.900;9.090;2023-07-13T08:29:20;16.23;;;15.43;;
20179;SDS011;10249;48.900;9.090;2023-07-13T08:31:49;15.70;;;15.00;;
20179;SDS011;10249;48.900;9.090;2023-07-13T08:34:16;15.20;;;14.50;;
20179;SDS011;10249;48.900;9.090;2023-07-13T08:36:43;15.67;;;14.97;;
20179;SDS011;10249;48.900;9.090;2023-07-13T08:39:10;15.37;;;14.67;;
20179;SDS011;10249;48.900;9.090;2023-07-13T08:41:38;15.70;;;15.00;;
20179;SDS011;10249;48.900;9.090;2023-07-13T08:44:06;16.00;;;15.20;;
20179;SDS011;10249;48.900;9.090;2023-07-13T08:46:39;15.70;;;14.90;;
20179;SDS011;10249;48.900;9.090;2023-07-13T08:49:10;15.83;;;15.03;;
20179;SDS011;10249;48.900;9.090;2023-07-13T08:51:40;16.00;;;15.20;;
20179;SDS011;10249;48.900;9.090;2023-07-13T08:54:11;15.70;;;15.00;;
20179;SDS011;10249;48.900;9.090;2023-07-13T08:56:41;16.13;;;15.33;;
20179;SDS011;10249;48.900;9.090;2023-07-13T08:59:10;15.67;;;14.97;;
20179;SDS011;10249;48.900;9.090;2023-07-13T09:01:44;15.90;;;15.10;;
20179;SDS011;10249;48.900;9.090;2023-07-13T09:04:14;16.00;;;15.20;;
20179;SDS011;10249;48.900;9.090;2023-07-13T09:06:46;16.33;;;15.53;;
20179;SDS011;10249;48.900;9.090;2023-07-13T09:09:18;16.40;;;15.60;;
20179;SDS011;10249;48.900;9.090;2023-07-13T09:11:49;16.30;;;15.50;;
20179;SDS011;10249;48.900;9.090;2023-07-13T09:14:36;16.20;;;15.40;;
20179;SDS011;10249;48.900;9.090;2023-07-13T09:17:10;16.03;;;15.23;;
20179;SDS011;10249;48.900;9.090;2023-07-13T09:19:40;16.40;;;15.60;;
20179;SDS011;10249;48.900;9.090;2023-07-13T09:22:09;16.67;;;15.87;;
20179;SDS011;10249;48.900;9.090;2023-07-13T09:24:38;16.50;;;15.70;;
20179;SDS011;10249;48.900;9.090;2023-07-13T09:27:13;16.20;;;15.40;;
20179;SDS011;10249;48.900;9.090;2023-07-13T09:29:42;15.87;;;15.07;;
20179;SDS011;10249;48.900;9.090;2023-07-13T09:32:12;16.10;;;15.30;;
20179;SDS011;10249;48.900;9.090;2023-07-13T09:34:41;16.20;;;15.40;;
20179;SDS011;10249;48.900;9.090;2023-07-13T09:37:08;15.90;;;15.10;;
20179;SDS011;10249;48.900;9.090;2023-07-13T09:39:35;15.80;;;15.00;;
20179;SDS011;10249;48.900;9.090;2023-07-13T09:42:06;16.10;;;15.30;;
20179;SDS011;10249;48.900;9.090;2023-07-13T09:44:34;16.00;;;15.20;;
20179;SDS011;10249;48.900;9.090;2023-07-13T09:47:02;16.07;;;15.27;;
20179;SDS011;10249;48.900;9.090;2023-07-13T09:49:33;16.10;;;15.30;;
20179;SDS011;10249;48.900;9.090;2023-07-13T09:52:03;16.10;;;15.30;;
20179;SDS011;10249;48.900;9.090;2023-07-13T09:54:33;15.93;;;15.13;;
20179;SDS011;10249;48.900;9.090;2023-07-13T09:57:01;15.77;;;15.07;;
20179;SDS011;10249;48.900;9.090;2023-07-13T09:59:29;16.00;;;15.20;;
20179;SDS011;10249;48.900;9.090;2023-07-13T10:01:56;15.97;;;15.17;;
20179;SDS011;10249;48.900;9.090;2023-07-13T10:04:26;16.10;;;15.30;;
20179;SDS011;10249;48.900;9.090;2023-07-13T10:07:03;16.20;;;15.40;;
20179;SDS011;10249;48.900;9.090;2023-07-13T10:09:32;16.30;;;15.50;;
20179;SDS011;10249;48.900;9.090;2023-07-13T10:11:59;16.53;;;15.73;;
20179;SDS011;10249;48.900;9.090;2023-07-13T10:14:26;16.43;;;15.53;;
20179;SDS011;10249;48.900;9.090;2023-07-13T10:16:55;16.30;;;15.50;;
20179;SDS011;10249;48.900;9.090;2023-07-13T10:19:24;16.30;;;15.50;;
20179;SDS011;10249;48.900;9.090;2023-07-13T10:21:52;16.50;;;15.50;;
20179;SDS011;10249;48.900;9.090;2023-07-13T10:24:21;16.20;;;15.40;;
20179;SDS011;10249;48.900;9.090;2023-07-13T10:26:52;16.20;;;15.40;;
20179;SDS011;10249;48.900;9.090;2023-07-13T10:29:20;15.90;;;15.10;;
20179;SDS011;10249;48.900;9.090;2023-07-13T10:31:49;16.37;;;15.57;;
20179;SDS011;10249;48.900;9.090;2023-07-13T10:34:16;16.40;;;15.60;;
20179;SDS011;10249;48.900;9.090;2023-07-13T10:36:43;16.10;;;15.30;;
20179;SDS011;10249;48.900;9.090;2023-07-13T10:39:13;16.77;;;15.87;;
20179;SDS011;10249;48.900;9.090;2023-07-13T10:41:42;16.03;;;15.23;;
20179;SDS011;10249;48.900;9.090;2023-07-13T10:44:14;16.30;;;15.50;;
20179;SDS011;10249;48.900;9.090;2023-07-13T10:46:42;16.20;;;15.40;;
20179;SDS011;10249;48.900;9.090;2023-07-13T10:49:10;16.33;;;15.53;;
20179;SDS011;10249;48.900;9.090;2023-07-13T10:51:38;16.40;;;15.53;;
20179;SDS011;10249;48.900;9.090;2023-07-13T10:54:17;16.30;;;15.50;;
20179;SDS011;10249;48.900;9.090;2023-07-13T10:56:48;16.63;;;15.83;;
20179;SDS011;10249;48.900;9.090;2023-07-13T10:59:17;16.50;;;15.70;;
20179;SDS011;10249;48.900;9.090;2023-07-13T11:01:53;16.38;;;15.57;;
20179;SDS011;10249;48.900;9.090;2023-07-13T11:04:21;16.58;;;15.77;;
20179;SDS011;10249;48.900;9.090;2023-07-13T11:06:50;16.55;;;15.75;;
20179;SDS011;10249;48.900;9.090;2023-07-13T11:09:18;16.38;;;15.57;;
20179;SDS011;10249;48.900;9.090;2023-07-13T11:11:46;16.48;;;15.68;;
20179;SDS011;10249;48.900;9.090;2023-07-13T11:14:27;15.90;;;15.10;;
20179;SDS011;10249;48.900;9.090;2023-07-13T11:16:54;17.70;;;16.80;;
20179;SDS011;10249;48.900;9.090;2023-07-13T11:19:37;15.80;;;15.00;;
20179;SDS011;10249;48.900;9.090;2023-07-13T11:22:16;16.10;;;15.30;;
20179;SDS011;10249;48.900;9.090;2023-07-13T11:24:50;16.17;;;15.27;;
20179;SDS011;10249;48.900;9.090;2023-07-13T11:27:22;15.98;;;15.18;;
20179;SDS011;10249;48.900;9.090;2023-07-13T11:29:50;16.20;;;15.40;;
20179;SDS011;10249;48.900;9.090;2023-07-13T11:32:21;16.03;;;15.23;;
20179;SDS011;10249;48.900;9.090;2023-07-13T11:34:51;16.30;;;15.50;;
20179;SDS011;10249;48.900;9.090;2023-07-13T11:37:20;16.23;;;15.43;;
20179;SDS011;10249;48.900;9.090;2023-07-13T11:39:48;16.20;;;15.40;;
20179;SDS011;10249;48.900;9.090;2023-07-13T11:42:18;16.58;;;15.77;;
20179;SDS011;10249;48.900;9.090;2023-07-13T11:44:46;16.17;;;15.38;;
20179;SDS011;10249;48.900;9.090;2023-07-13T11:47:17;16.60;;;15.73;;
20179;SDS011;10249;48.900;9.090;2023-07-13T11:49:45;16.70;;;15.80;;
20179;SDS011;10249;48.900;9.090;2023-07-13T11:52:15;16.17;;;15.38;;
20179;SDS011;10249;48.900;9.090;2023-07-13T11:54:45;16.20;;;15.40;;
20179;SDS011;10249;48.900;9.090;2023-07-13T11:57:18;15.55;;;14.75;;
20179;SDS011;10249;48.900;9.090;2023-07-13T11:59:46;16.00;;;15.20;;
20179;SDS011;10249;48.900;9.090;2023-07-13T12:02:16;16.27;;;15.48;;
20179;SDS011;10249;48.900;9.090;2023-07-13T12:04:44;15.80;;;15.00;;
20179;SDS011;10249;48.900;9.090;2023-07-13T12:07:14;16.13;;;15.32;;
20179;SDS011;10249;48.900;9.090;2023-07-13T12:09:42;15.82;;;15.02;;
20179;SDS011;10249;48.900;9.090;2023-07-13T12:12:10;16.25;;;15.45;;
20179;SDS011;10249;48.900;9.090;2023-07-13T12:14:38;16.38;;;15.57;;
20179;SDS011;10249;48.900;9.090;2023-07-13T12:17:08;16.30;;;15.50;;
20179;SDS011;10249;48.900;9.090;2023-07-13T12:19:37;15.90;;;15.10;;
20179;SDS011;10249;48.900;9.090;2023-07-13T12:22:08;16.75;;;15.95;;
20179;SDS011;10249;48.900;9.090;2023-07-13T12:24:37;16.58;;;15.77;;
20179;SDS011;10249;48.900;9.090;2023-07-13T12:27:05;16.27;;;15.48;;
20179;SDS011;10249;48.900;9.090;2023-07-13T12:29:33;16.58;;;15.77;;
20179;SDS011;10249;48.900;9.090;2023-07-13T12:32:00;17.30;;;16.30;;
20179;SDS011;10249;48.900;9.090;2023-07-13T12:34:27;16.60;;;15.80;;
20179;SDS011;10249;48.900;9.090;2023-07-13T12:36:56;16.58;;;15.77;;
20179;SDS011;10249;48.900;9.090;2023-07-13T12:39:24;16.20;;;15.40;;
20179;SDS011;10249;48.900;9.090;2023-07-13T12:41:52;16.35;;;15.55;;
20179;SDS011;10249;48.900;9.090;2023-07-13T12:44:22;16.50;;;15.60;;
20179;SDS011;10249;48.900;9.090;2023-07-13T12:46:55;16.40;;;15.60;;
20179;SDS011;10249;48.900;9.090;2023-07-13T12:49:25;16.45;;;15.55;;
20179;SDS011;10249;48.900;9.090;2023-07-13T12:51:59;15.85;;;15.05;;
20179;SDS011;10249;48.900;9.090;2023-07-13T12:54:27;15.90;;;15.10;;
20179;SDS011;10249;48.900;9.090;2023-07-13T12:56:55;15.88;;;15.07;;
20179;SDS011;10249;48.900;9.090;2023-07-13T12:59:23;16.48;;;15.60;;
20179;SDS011;10249;48.900;9.090;2023-07-13T13:01:53;16.25;;;15.45;;
20179;SDS011;10249;48.900;9.090;2023-07-13T13:04:20;16.27;;;15.48;;
20179;SDS011;10249;48.900;9.090;2023-07-13T13:06:48;16.25;;;15.45;;
20179;SDS011;10249;48.900;9.090;2023-07-13T13:09:17;16.50;;;15.55;;
20179;SDS011;10249;48.900;9.090;2023-07-13T13:11:45;16.10;;;15.30;;
20179;SDS011;10249;48.900;9.090;2023-07-13T13:14:12;16.55;;;15.75;;
20179;SDS011;10249;48.900;9.090;2023-07-13T13:16:43;16.05;;;15.25;;
20179;SDS011;10249;48.900;9.090;2023-07-13T13:19:12;16.40;;;15.60;;
20179;SDS011;10249;48.900;9.090;2023-07-13T13:21:39;16.15;;;15.35;;
20179;SDS011;10249;48.900;9.090;2023-07-13T13:24:10;16.00;;;15.20;;
20179;SDS011;10249;48.900;9.090;2023-07-13T13:26:39;16.25;;;15.35;;
20179;SDS011;10249;48.900;9.090;2023-07-13T13:29:09;16.40;;;15.52;;
20179;SDS011;10249;48.900;9.090;2023-07-13T13:31:38;16.10;;;15.30;;
20179;SDS011;10249;48.900;9.090;2023-07-13T13:34:07;16.48;;;15.60;;
20179;SDS011;10249;48.900;9.090;2023-07-13T13:36:34;15.98;;;15.18;;
20179;SDS011;10249;48.900;9.090;2023-07-13T13:39:01;16.27;;;15.48;;
20179;SDS011;10249;48.900;9.090;2023-07-13T13:41:29;16.05;;;15.25;;
20179;SDS011;10249;48.900;9.090;2023-07-13T13:43:58;15.95;;;15.15;;
20179;SDS011;10249;48.900;9.090;2023-07-13T13:46:25;16.30;;;15.50;;
20179;SDS011;10249;48.900;9.090;2023-07-13T13:48:54;15.75;;;14.95;;
20179;SDS011;10249;48.900;9.090;2023-07-13T13:51:22;16.05;;;15.25;;
20179;SDS011;10249;48.900;9.090;2023-07-13T13:53:50;16.08;;;15.27;;
20179;SDS011;10249;48.900;9.090;2023-07-13T13:56:18;16.35;;;15.48;;
20179;SDS011;10249;48.900;9.090;2023-07-13T13:58:45;16.75;;;15.85;;
20179;SDS011;10249;48.900;9.090;2023-07-13T14:01:16;16.10;;;15.30;;
20179;SDS011;10249;48.900;9.090;2023-07-13T14:03:43;16.20;;;15.40;;
20179;SDS011;10249;48.900;9.090;2023-07-13T14:06:11;16.35;;;15.45;;
20179;SDS011;10249;48.900;9.090;2023-07-13T14:08:38;16.33;;;15.52;;
20179;SDS011;10249;48.900;9.090;2023-07-13T14:11:07;16.33;;;15.52;;
20179;SDS011;10249;48.900;9.090;2023-07-13T14:13:38;16.30;;;15.50;;
20179;SDS011;10249;48.900;9.090;2023-07-13T14:16:08;16.38;;;15.57;;
20179;SDS011;10249;48.900;9.090;2023-07-13T14:18:37;16.60;;;15.70;;
20179;SDS011;10249;48.900;9.090;2023-07-13T14:21:08;16.13;;;15.32;;
20179;SDS011;10249;48.900;9.090;2023-07-13T14:23:35;16.30;;;15.50;;
20179;SDS011;10249;48.900;9.090;2023-07-13T14:26:03;16.30;;;15.50;;